Time;durP1;ratioP1;P1;durP2;ratioP2;P2;SDS_P1;SDS_P2;PMS_P1;PMS_P2;Temp;Humidity;BMP_temperature;BMP_pressure;BME280_temperature;BME280_humidity;BME280_pressure;Samples;Min_cycle;Max_cycle;Signal;HPM_P1;HPM_P2
2024/04/15 00:08:22;;;;;;;8.60;5.80;;;;;;;11.93;64.62;98460.87;435330;1262;112263;-41
2024/04/15 00:18:30;;;;;;;11.30;5.30;;;;;;;11.95;65.33;98444.84;435235;1264;106763;-40
2024/04/15 00:28:35;;;;;;;10.80;6.30;;;;;;;11.90;65.96;98426.91;435414;1254;99231;-41
2024/04/15 00:38:40;;;;;;;7.70;5.00;;;;;;;11.74;66.38;98414.08;435451;1253;108480;-38
2024/04/15 00:48:45;;;;;;;12.50;6.10;;;;;;;11.64;66.73;98403.23;435300;1253;99228;-42
2024/04/15 00:58:51;;;;;;;11.50;5.40;;;;;;;11.58;67.19;98387.37;435465;1253;111912;-43
2024/04/15 01:08:56;;;;;;;17.30;5.90;;;;;;;11.56;67.42;98377.42;435489;1253;108217;-41
2024/04/15 01:19:01;;;;;;;13.80;6.90;;;;;;;11.45;67.78;98373.03;436477;1251;99228;-41
2024/04/15 01:29:06;;;;;;;12.00;5.60;;;;;;;11.44;67.94;98357.66;436366;1252;109636;-40
2024/04/15 01:39:11;;;;;;;12.00;5.60;;;;;;;11.44;68.09;98343.41;436948;1254;99254;-41
2024/04/15 01:49:18;;;;;;;12.50;6.10;;;;;;;11.47;68.37;98320.11;436063;1250;113645;-42
2024/04/15 01:59:27;;;;;;;14.30;6.90;;;;;;;11.42;68.77;98293.23;436107;1253;108201;-41
2024/04/15 02:09:32;;;;;;;15.50;7.00;;;;;;;11.23;69.08;98269.34;436163;1254;98793;-41
2024/04/15 02:19:37;;;;;;;13.30;7.90;;;;;;;11.01;69.21;98239.95;435945;1250;108269;-40
2024/04/15 02:29:43;;;;;;;13.50;6.50;;;;;;;10.86;69.58;98220.83;435818;1250;99954;-40
2024/04/15 02:39:51;;;;;;;17.00;8.30;;;;;;;10.79;70.00;98194.88;436142;1253;112370;-42
2024/04/15 02:49:56;;;;;;;12.20;6.70;;;;;;;10.78;70.67;98207.08;436035;1252;107317;-41
2024/04/15 03:00:01;;;;;;;12.00;5.70;;;;;;;10.82;70.81;98208.35;435988;1253;98828;-41
2024/04/15 03:10:08;;;;;;;8.80;5.50;;;;;;;10.88;70.92;98187.83;435938;1248;109599;-42
2024/04/15 03:20:13;;;;;;;8.60;5.90;;;;;;;10.88;71.00;98175.13;435977;1248;99212;-41
2024/04/15 03:30:18;;;;;;;11.50;6.40;;;;;;;10.87;71.31;98147.59;435938;1251;112139;-41
2024/04/15 03:40:23;;;;;;;11.20;7.30;;;;;;;11.01;71.76;98120.95;435960;1250;108899;-42
2024/04/15 03:50:28;;;;;;;11.90;5.80;;;;;;;11.16;71.65;98110.54;435898;1253;98281;-40
2024/04/15 04:00:33;;;;;;;13.40;6.20;;;;;;;11.20;71.76;98092.10;436025;1252;109483;-40
2024/04/15 04:10:37;;;;;;;11.70;5.80;;;;;;;11.26;71.95;98068.52;436039;1249;99221;-39
2024/04/15 04:20:42;;;;;;;11.40;6.40;;;;;;;11.13;71.92;98079.16;435958;1253;111847;-41
2024/04/15 04:30:47;;;;;;;10.40;5.70;;;;;;;10.99;72.16;98057.20;435922;1253;108509;-41
2024/04/15 04:40:57;;;;;;;17.10;6.90;;;;;;;10.95;72.35;98038.00;436019;1250;99218;-41
2024/04/15 04:51:07;;;;;;;12.20;7.30;;;;;;;10.85;72.56;98031.57;435978;1253;107649;-40
2024/04/15 05:01:12;;;;;;;59.60;29.90;;;;;;;10.78;73.07;98054.21;435992;1248;99135;-42
2024/04/15 05:11:18;;;;;;;16.10;10.00;;;;;;;10.68;73.42;98112.15;436156;1248;112264;-41
2024/04/15 05:21:23;;;;;;;12.70;8.30;;;;;;;10.62;73.81;98127.97;435865;1248;108956;-41
2024/04/15 05:31:28;;;;;;;11.50;7.30;;;;;;;10.62;74.06;98168.69;435889;1248;99248;-40
2024/04/15 05:41:33;;;;;;;14.10;6.70;;;;;;;10.59;74.13;98194.12;435666;1251;108787;-40
2024/04/15 05:51:38;;;;;;;17.80;10.30;;;;;;;10.49;74.62;98186.73;435613;1248;338235;-41
2024/04/15 06:01:43;;;;;;;12.20;4.40;;;;;;;10.29;74.44;98174.97;435902;1253;112128;-41
2024/04/15 06:11:48;;;;;;;10.10;3.10;;;;;;;9.72;74.23;98163.30;435729;1253;108540;-40
2024/04/15 06:21:54;;;;;;;8.10;4.30;;;;;;;9.64;74.26;98144.25;435932;1254;99356;-41
2024/04/15 06:31:58;;;;;;;7.60;4.10;;;;;;;9.46;74.46;98131.65;435945;1253;108776;-41
2024/04/15 06:42:04;;;;;;;8.30;4.80;;;;;;;9.39;74.73;98136.77;435988;1250;98846;-40
2024/04/15 06:52:09;;;;;;;13.70;5.70;;;;;;;9.49;74.73;98133.89;436088;1250;112301;-39
2024/04/15 07:02:38;;;;;;;9.50;4.10;;;;;;;9.61;74.64;98112.56;436068;1248;108651;-41
2024/04/15 07:12:46;;;;;;;;;;;;;;;9.56;74.57;98117.12;436215;1250;99231;-39
2024/04/15 07:22:51;;;;;;;11.90;5.20;;;;;;;9.49;74.85;98153.43;435936;1252;108438;-42
2024/04/15 07:32:57;;;;;;;11.60;5.10;;;;;;;9.44;74.79;98128.14;435942;1250;99218;-40
2024/04/15 07:43:06;;;;;;;11.10;5.60;;;;;;;9.55;75.06;98096.88;435973;1249;111960;-42
2024/04/15 07:53:11;;;;;;;13.20;5.90;;;;;;;9.78;75.33;98083.89;435796;1252;108591;-44
2024/04/15 08:03:16;;;;;;;16.10;6.90;;;;;;;9.92;75.14;98086.71;435784;1250;99345;-41
2024/04/15 08:13:21;;;;;;;10.90;5.60;;;;;;;9.88;74.95;98088.66;435667;1253;108577;-41
2024/04/15 08:23:27;;;;;;;16.10;5.40;;;;;;;9.97;74.72;98093.34;435748;1253;99237;-41
2024/04/15 08:33:32;;;;;;;8.20;5.30;;;;;;;10.12;74.73;98079.98;435734;1251;111729;-40
2024/04/15 08:43:42;;;;;;;19.00;7.10;;;;;;;10.26;74.88;98086.67;435628;1253;108366;-42
2024/04/15 08:53:47;;;;;;;14.80;5.80;;;;;;;10.10;75.06;98067.90;435868;1253;99221;-40
2024/04/15 09:03:52;;;;;;;14.40;6.10;;;;;;;10.06;74.98;98069.27;435777;1250;108260;-41
2024/04/15 09:13:57;;;;;;;18.40;5.90;;;;;;;10.17;75.00;98058.61;435763;1254;99205;-41
2024/04/15 09:24:08;;;;;;;14.30;6.90;;;;;;;10.40;75.01;98069.61;435776;1253;111875;-41
2024/04/15 09:34:15;;;;;;;11.50;5.80;;;;;;;10.34;74.82;98061.80;435726;1253;108185;-41
2024/04/15 09:44:21;;;;;;;13.60;5.40;;;;;;;10.27;74.80;98059.63;435753;1262;99221;-41
2024/04/15 09:54:33;;;;;;;23.00;6.30;;;;;;;9.98;75.02;98043.14;435819;1252;108374;-41
2024/04/15 10:04:40;;;;;;;18.90;7.60;;;;;;;10.25;75.08;98036.44;435712;1253;100766;-41
2024/04/15 10:14:46;;;;;;;16.70;5.70;;;;;;;10.29;74.59;98028.90;435666;1253;112493;-41
2024/04/15 10:24:51;;;;;;;18.30;7.20;;;;;;;10.26;74.41;98027.01;435651;1252;108389;-40
2024/04/15 10:34:56;;;;;;;14.40;5.10;;;;;;;10.39;74.65;98019.32;435714;1251;99243;-41
2024/04/15 10:45:17;;;;;;;11.00;4.70;;;;;;;10.49;74.09;97998.16;435553;1249;108537;-41
2024/04/15 10:55:22;;;;;;;17.30;5.00;;;;;;;10.35;73.62;97993.20;435606;1251;99250;-41
2024/04/15 11:05:27;;;;;;;10.00;4.60;;;;;;;10.35;73.46;97996.10;436116;1249;112934;-40
2024/04/15 11:15:34;;;;;;;13.90;5.10;;;;;;;10.40;73.42;97990.32;435853;1253;108595;-40
2024/04/15 11:25:40;;;;;;;10.90;5.10;;;;;;;10.55;73.37;97974.50;435879;1251;99234;-40
2024/04/15 11:35:50;;;;;;;12.00;5.20;;;;;;;10.57;72.90;97956.97;435707;1249;109525;-41
2024/04/15 11:45:56;;;;;;;10.40;6.60;;;;;;;10.65;72.78;97921.42;435729;1252;99246;-41
2024/04/15 11:56:03;;;;;;;14.10;5.40;;;;;;;10.80;72.73;97918.27;435824;1253;112030;-40
2024/04/15 12:06:09;;;;;;;18.40;6.90;;;;;;;10.91;72.56;97912.05;435587;1261;109025;-40
2024/04/15 12:16:15;;;;;;;12.30;6.40;;;;;;;10.93;72.39;97879.79;435647;1260;99253;-41
2024/04/15 12:26:44;;;;;;;11.60;6.30;;;;;;;10.88;72.41;97882.39;435678;1253;108492;-41
2024/04/15 12:36:50;;;;;;;27.70;11.80;;;;;;;11.10;72.73;97869.89;435677;1250;98821;-41
2024/04/15 12:46:55;;;;;;;13.30;4.60;;;;;;;11.33;72.48;97862.69;435491;1251;112464;-40
2024/04/15 12:57:00;;;;;;;8.80;4.10;;;;;;;11.40;71.71;97821.08;435856;1253;109436;-40
2024/04/15 13:07:05;;;;;;;12.00;4.00;;;;;;;11.50;71.12;97796.73;435661;1253;99198;-43
2024/04/15 13:17:10;;;;;;;12.40;4.40;;;;;;;11.70;71.34;97790.75;435524;1263;108403;-40
2024/04/15 13:27:15;;;;;;;9.80;4.60;;;;;;;11.65;70.55;97751.65;435630;1253;97995;-40
2024/04/15 13:37:20;;;;;;;12.40;4.30;;;;;;;11.52;70.46;97754.11;435771;1253;112180;-40
2024/04/15 13:47:26;;;;;;;16.30;4.40;;;;;;;11.53;70.22;97756.77;435727;1251;108754;-42
2024/04/15 13:57:32;;;;;;;7.10;4.00;;;;;;;11.60;70.32;97742.30;435662;1253;99371;-40
2024/04/15 14:07:37;;;;;;;13.80;5.80;;;;;;;11.50;70.16;97740.55;435603;1253;107601;-42
2024/04/15 14:17:49;;;;;;;11.90;5.30;;;;;;;11.37;70.25;97746.46;435625;1252;99216;-41
2024/04/15 14:27:55;;;;;;;10.60;4.20;;;;;;;11.30;70.10;97721.95;435639;1255;111045;-40
2024/04/15 14:38:00;;;;;;;10.00;5.10;;;;;;;11.15;70.07;97709.38;435713;1261;108235;-41
2024/04/15 14:48:10;;;;;;;9.60;5.50;;;;;;;11.08;70.13;97695.74;435761;1253;99256;-41
2024/04/15 14:58:15;;;;;;;16.10;6.10;;;;;;;10.93;70.13;97685.23;435710;1254;108592;-41
2024/04/15 15:08:21;;;;;;;16.00;5.70;;;;;;;11.01;70.01;97655.77;435822;1253;99208;-40
2024/04/15 15:18:26;;;;;;;13.20;5.30;;;;;;;11.11;70.04;97633.90;435685;1253;112585;-40
2024/04/15 15:28:31;;;;;;;11.00;4.50;;;;;;;11.11;70.19;97607.06;435834;1247;108261;-41
2024/04/15 15:38:36;;;;;;;8.10;4.70;;;;;;;11.14;70.16;97589.31;435835;1251;99327;-41
2024/04/15 15:48:42;;;;;;;12.10;5.20;;;;;;;11.06;69.98;97583.83;435821;1253;108389;-41
2024/04/15 15:58:47;;;;;;;15.70;5.10;;;;;;;11.01;69.93;97556.04;435863;1250;99225;-41
2024/04/15 16:08:52;;;;;;;15.40;5.70;;;;;;;11.04;70.00;97530.11;435730;1253;110684;-41
2024/04/15 16:18:57;;;;;;;10.10;5.10;;;;;;;11.10;69.89;97522.26;435463;1251;108310;-40
2024/04/15 16:29:04;;;;;;;13.70;5.30;;;;;;;11.24;69.82;97503.56;435761;1255;99346;-41
2024/04/15 16:39:09;;;;;;;9.30;5.60;;;;;;;11.18;69.82;97500.38;435739;1260;108749;-41
2024/04/15 16:49:14;;;;;;;10.00;5.60;;;;;;;11.02;69.80;97479.16;435726;1250;99538;-41
2024/04/15 16:59:19;;;;;;;11.80;7.20;;;;;;;10.89;70.01;97475.31;435756;1253;112922;-41
2024/04/15 17:09:24;;;;;;;17.00;8.70;;;;;;;10.85;70.08;97463.34;435738;1253;108183;-41
2024/04/15 17:19:29;;;;;;;16.70;7.70;;;;;;;10.80;69.99;97445.55;435817;1255;99356;-41
2024/04/15 17:29:35;;;;;;;17.90;8.10;;;;;;;10.82;70.20;97433.35;435802;1263;108963;-41
2024/04/15 17:39:48;;;;;;;12.80;6.70;;;;;;;10.74;70.36;97424.60;435772;1253;99223;-41
2024/04/15 17:49:57;;;;;;;15.80;9.40;;;;;;;10.63;70.65;97411.09;435375;1251;508353;-42
2024/04/15 18:00:11;;;;;;;19.40;9.70;;;;;;;10.53;70.92;97399.58;435760;1261;108048;-41
2024/04/15 18:10:18;;;;;;;22.20;10.90;;;;;;;10.49;71.02;97360.23;435819;1251;99034;-40
2024/04/15 18:20:23;;;;;;;16.40;9.70;;;;;;;10.54;71.20;97349.36;435659;1251;108879;-39
2024/04/15 18:30:29;;;;;;;17.80;10.30;;;;;;;10.54;71.52;97334.52;435757;1253;99227;-39
2024/04/15 18:40:33;;;;;;;20.60;11.20;;;;;;;10.44;71.81;97326.71;435906;1253;112350;-40
2024/04/15 18:50:38;;;;;;;26.60;13.80;;;;;;;10.34;72.13;97320.80;435712;1261;108529;-41
2024/04/15 19:00:44;;;;;;;28.50;12.30;;;;;;;10.27;72.35;97317.36;435648;1253;99234;-40
2024/04/15 19:10:49;;;;;;;24.20;10.40;;;;;;;10.37;72.72;97299.52;435759;1252;109323;-41
2024/04/15 19:20:55;;;;;;;28.00;14.70;;;;;;;10.43;73.03;97283.39;436003;1251;99129;-41
2024/04/15 19:31:00;;;;;;;27.20;15.30;;;;;;;10.29;73.16;97253.75;436223;1253;113040;-40
2024/04/15 19:41:06;;;;;;;21.30;12.70;;;;;;;10.20;73.43;97244.10;435835;1262;107644;-40
2024/04/15 19:51:11;;;;;;;20.90;11.20;;;;;;;10.31;73.73;97238.90;436035;1253;99780;-41
2024/04/15 20:01:17;;;;;;;25.70;15.00;;;;;;;10.37;73.82;97228.45;436044;1254;108477;-41
2024/04/15 20:11:24;;;;;;;31.50;15.10;;;;;;;10.25;73.95;97207.13;436146;1251;98541;-40
2024/04/15 20:21:30;;;;;;;25.70;15.60;;;;;;;9.90;73.96;97179.89;435993;1249;111292;-40
2024/04/15 20:31:35;;;;;;;26.90;14.60;;;;;;;9.62;74.34;97158.41;435788;1254;109101;-41
2024/04/15 20:41:44;;;;;;;26.90;14.20;;;;;;;9.49;75.00;97144.72;435814;1252;99228;-39
2024/04/15 20:51:50;;;;;;;29.30;15.50;;;;;;;9.34;75.45;97125.23;435901;1254;108739;-41
2024/04/15 21:01:55;;;;;;;29.70;16.50;;;;;;;9.16;76.05;97108.48;435845;1254;99751;-40
2024/04/15 21:12:05;;;;;;;34.60;19.20;;;;;;;9.10;76.67;97082.52;435743;1253;111746;-41
2024/04/15 21:22:10;;;;;;;35.80;21.30;;;;;;;9.00;77.38;97054.38;435904;1253;108554;-41
2024/04/15 21:32:15;;;;;;;32.50;20.30;;;;;;;9.07;77.61;97078.23;436011;1253;99250;-41
2024/04/15 21:42:20;;;;;;;36.00;21.90;;;;;;;9.06;78.37;97057.15;435905;1263;108708;-41
2024/04/15 21:52:25;;;;;;;44.10;24.40;;;;;;;9.00;78.81;97008.56;436025;1251;99225;-40
2024/04/15 22:02:31;;;;;;;46.60;26.60;;;;;;;9.03;79.51;97017.05;435957;1253;112202;-43
2024/04/15 22:12:35;;;;;;;60.60;35.50;;;;;;;9.17;81.48;96987.45;435733;1251;108711;-42
2024/04/15 22:22:43;;;;;;;43.00;27.00;;;;;;;9.24;83.84;96943.23;436077;1252;99725;-40
2024/04/15 22:32:48;;;;;;;51.90;28.60;;;;;;;9.26;84.40;96924.55;435935;1250;108628;-41
2024/04/15 22:42:53;;;;;;;49.50;29.10;;;;;;;9.39;84.81;96901.30;435929;1253;99255;-42
2024/04/15 22:52:58;;;;;;;49.80;30.10;;;;;;;9.50;85.24;96876.98;435949;1253;112252;-40
2024/04/15 23:03:03;;;;;;;57.00;31.50;;;;;;;9.49;85.79;96863.10;436043;1250;108183;-41
2024/04/15 23:13:08;;;;;;;53.30;31.60;;;;;;;9.48;86.51;96856.04;436081;1249;99161;-41
2024/04/15 23:23:13;;;;;;;46.10;29.40;;;;;;;9.55;86.34;96847.15;435871;1253;108400;-41
2024/04/15 23:33:18;;;;;;;36.20;20.50;;;;;;;9.81;86.33;96844.94;435951;1253;99240;-41
2024/04/15 23:43:23;;;;;;;22.90;13.60;;;;;;;10.04;86.40;96841.44;435987;1254;112257;-41
2024/04/15 23:53:28;;;;;;;20.70;12.60;;;;;;;10.16;86.53;96841.39;435973;1253;108357;-41
